createdAt,value
2022-11-06T00:01:39.919Z,38.15
2022-11-06T00:04:07.333Z,47.65
2022-11-06T00:06:53.745Z,42.00
2022-11-06T00:09:21.801Z,42.33
2022-11-06T00:11:50.569Z,38.58
2022-11-06T00:14:18.143Z,38.13
2022-11-06T00:16:47.439Z,39.42
2022-11-06T00:19:15.440Z,48.25
2022-11-06T00:21:43.154Z,40.83
2022-11-06T00:24:12.508Z,40.97
2022-11-06T00:26:40.234Z,40.15
2022-11-06T00:29:08.047Z,39.92
2022-11-06T00:31:37.546Z,47.05
2022-11-06T00:34:07.861Z,39.58
2022-11-06T00:36:36.065Z,36.53
2022-11-06T00:39:03.733Z,39.67
2022-11-06T00:41:32.036Z,33.65
2022-11-06T00:44:00.565Z,44.50
2022-11-06T00:46:28.792Z,40.05
2022-11-06T00:48:56.619Z,36.28
2022-11-06T00:51:30.008Z,44.28
2022-11-06T00:54:00.742Z,42.22
2022-11-06T00:56:29.778Z,47.83
2022-11-06T00:59:00.082Z,42.22
2022-11-06T01:01:30.330Z,41.72
2022-11-06T01:04:00.765Z,36.47
2022-11-06T01:06:30.749Z,40.03
2022-11-06T01:08:59.200Z,43.17
2022-11-06T01:12:06.937Z,37.25
2022-11-06T01:14:26.888Z,44.92
2022-11-06T01:16:54.517Z,42.70
2022-11-06T01:19:22.735Z,37.33
2022-11-06T01:21:53.116Z,44.72
2022-11-06T01:24:26.865Z,40.30
2022-11-06T01:29:43.392Z,42.92
2022-11-06T01:32:11.508Z,43.47
2022-11-06T01:34:38.892Z,42.63
2022-11-06T01:37:09.212Z,43.55
2022-11-06T01:39:40.777Z,49.13
2022-11-06T01:42:11.853Z,44.47
2022-11-06T01:44:42.179Z,45.72
2022-11-06T01:47:29.520Z,45.78
2022-11-06T01:49:59.980Z,43.22
2022-11-06T01:52:28.686Z,36.65
2022-11-06T01:54:59.113Z,45.28
2022-11-06T01:57:26.903Z,36.67
2022-11-06T01:59:54.719Z,41.70
2022-11-06T02:02:22.823Z,44.63
2022-11-06T02:04:50.755Z,34.03
2022-11-06T02:07:19.209Z,45.83
2022-11-06T02:09:46.968Z,39.35
2022-11-06T02:12:46.034Z,41.53
2022-11-06T02:15:16.939Z,38.45
2022-11-06T02:18:15.891Z,42.10
2022-11-06T02:21:02.269Z,40.85
2022-11-06T02:23:56.939Z,38.30
2022-11-06T02:27:02.053Z,41.28
2022-11-06T02:29:46.735Z,38.15
2022-11-06T02:32:19.503Z,37.17
2022-11-06T02:37:18.762Z,33.53
2022-11-06T02:39:48.728Z,36.20
2022-11-06T02:42:19.155Z,35.92
2022-11-06T02:44:49.931Z,41.30
2022-11-06T02:47:20.048Z,39.00
2022-11-06T02:49:52.854Z,44.70
2022-11-06T02:52:23.877Z,43.40
2022-11-06T02:54:57.183Z,36.35
2022-11-06T02:57:27.258Z,45.47
2022-11-06T03:00:04.115Z,40.80
2022-11-06T03:02:37.557Z,42.78
2022-11-06T03:05:17.893Z,39.40
2022-11-06T03:07:51.170Z,35.72
2022-11-06T03:10:19.117Z,39.67
2022-11-06T03:12:57.141Z,44.38
2022-11-06T03:15:43.932Z,37.70
2022-11-06T03:18:36.021Z,35.35
2022-11-06T03:21:09.400Z,33.15
2022-11-06T03:26:21.795Z,36.88
2022-11-06T03:28:53.160Z,35.13
2022-11-06T03:31:27.380Z,39.78
2022-11-06T03:33:58.965Z,37.83
2022-11-06T03:36:47.539Z,35.75
2022-11-06T03:39:19.194Z,33.85
2022-11-06T03:42:08.501Z,39.10
2022-11-06T03:44:40.539Z,37.75
2022-11-06T03:47:22.721Z,35.97
2022-11-06T03:49:55.230Z,33.00
2022-11-06T03:52:29.510Z,28.33
2022-11-06T03:55:04.169Z,35.50
2022-11-06T03:57:52.913Z,41.47
2022-11-06T04:00:20.734Z,32.17
2022-11-06T04:03:06.529Z,41.70
2022-11-06T04:05:44.365Z,27.92
2022-11-06T04:08:31.866Z,30.05
2022-11-06T04:11:20.904Z,41.75
2022-11-06T04:14:07.349Z,37.40
2022-11-06T04:16:40.567Z,31.60
2022-11-06T04:19:22.500Z,27.95
2022-11-06T04:22:27.389Z,29.42
2022-11-06T04:25:52.742Z,28.17
2022-11-06T04:28:43.221Z,27.35
2022-11-06T04:31:23.313Z,41.33
2022-11-06T04:33:57.137Z,23.60
2022-11-06T04:36:37.789Z,29.35
2022-11-06T04:39:37.577Z,24.95
2022-11-06T04:42:24.851Z,30.38
2022-11-06T04:44:57.446Z,25.30
2022-11-06T04:47:25.591Z,32.90
2022-11-06T04:49:56.824Z,28.77
2022-11-06T04:52:28.209Z,30.45
2022-11-06T04:54:56.854Z,53.20
2022-11-06T04:57:25.402Z,112.57
2022-11-06T04:59:53.000Z,62.42
2022-11-06T05:02:20.618Z,100.10
2022-11-06T05:04:48.368Z,43.95
2022-11-06T05:07:16.473Z,77.70
2022-11-06T05:09:45.821Z,69.13
2022-11-06T05:12:13.652Z,51.25
2022-11-06T05:14:41.057Z,73.85
2022-11-06T05:17:08.911Z,49.38
2022-11-06T05:19:36.249Z,77.72
2022-11-06T05:22:22.793Z,145.90
2022-11-06T05:24:50.029Z,128.13
2022-11-06T05:27:17.803Z,88.68
2022-11-06T05:29:45.235Z,136.43
2022-11-06T05:35:13.856Z,178.82
2022-11-06T05:37:41.717Z,259.92
2022-11-06T05:40:09.371Z,229.55
2022-11-06T05:42:38.936Z,191.30
2022-11-06T05:45:08.209Z,274.58
2022-11-06T05:47:36.110Z,186.68
2022-11-06T05:50:03.532Z,179.43
2022-11-06T05:52:31.176Z,186.05
2022-11-06T05:54:58.482Z,117.30
2022-11-06T05:57:26.145Z,91.82
2022-11-06T05:59:53.495Z,122.68
2022-11-06T06:02:21.216Z,102.43
2022-11-06T06:04:48.663Z,134.35
2022-11-06T06:07:16.291Z,118.30
2022-11-06T06:09:43.566Z,76.63
2022-11-06T06:12:13.905Z,109.00
2022-11-06T06:14:41.272Z,134.75
2022-11-06T06:17:08.906Z,104.90
2022-11-06T06:19:36.275Z,85.00
2022-11-06T06:22:03.698Z,133.63
2022-11-06T06:24:31.076Z,164.90
2022-11-06T06:26:58.791Z,76.53
2022-11-06T06:29:26.077Z,93.03
2022-11-06T06:31:53.988Z,119.53
2022-11-06T06:34:21.442Z,94.28
2022-11-06T06:36:51.093Z,148.57
2022-11-06T06:39:21.765Z,80.00
2022-11-06T06:41:49.719Z,83.65
2022-11-06T06:44:17.126Z,117.35
2022-11-06T06:46:44.768Z,146.68
2022-11-06T06:49:12.307Z,114.72
2022-11-06T06:51:39.988Z,76.80
2022-11-06T06:54:07.276Z,89.85
2022-11-06T06:56:35.117Z,85.25
2022-11-06T06:59:02.542Z,98.40
2022-11-06T07:01:30.855Z,123.43
2022-11-06T07:04:03.719Z,84.20
2022-11-06T07:06:32.506Z,122.78
2022-11-06T07:08:59.695Z,125.50
2022-11-06T07:11:27.320Z,105.18
2022-11-06T07:13:54.740Z,155.70
2022-11-06T07:16:22.346Z,141.93
2022-11-06T07:18:49.650Z,115.97
2022-11-06T07:21:17.311Z,186.77
2022-11-06T07:23:44.761Z,156.05
2022-11-06T07:26:12.647Z,119.47
2022-11-06T07:28:40.248Z,95.95
2022-11-06T07:31:08.435Z,89.90
2022-11-06T07:33:36.534Z,97.53
2022-11-06T07:36:06.187Z,54.95
2022-11-06T07:38:35.186Z,104.43
2022-11-06T07:41:04.509Z,62.05
2022-11-06T07:43:32.267Z,63.22
2022-11-06T07:46:02.054Z,99.53
2022-11-06T07:48:30.270Z,86.45
2022-11-06T07:50:58.622Z,80.25
2022-11-06T07:53:25.858Z,69.13
2022-11-06T07:55:55.653Z,73.53
2022-11-06T07:58:24.207Z,123.72
2022-11-06T08:00:54.088Z,114.82
2022-11-06T08:03:22.267Z,114.70
2022-11-06T08:05:50.707Z,137.13
2022-11-06T08:08:18.110Z,186.18
2022-11-06T08:10:47.773Z,146.75
2022-11-06T08:13:17.086Z,222.13
2022-11-06T08:15:44.872Z,99.85
2022-11-06T08:18:12.946Z,238.18
2022-11-06T08:20:41.355Z,114.68
2022-11-06T08:23:11.849Z,111.75
2022-11-06T08:25:40.121Z,185.85
2022-11-06T08:28:07.531Z,119.68
2022-11-06T08:30:35.049Z,89.15
2022-11-06T08:33:04.661Z,148.25
2022-11-06T08:35:34.331Z,233.82
2022-11-06T08:38:01.598Z,139.55
2022-11-06T08:40:31.137Z,133.15
2022-11-06T08:43:02.900Z,63.13
2022-11-06T08:45:30.891Z,62.53
2022-11-06T08:48:03.025Z,152.13
2022-11-06T08:50:32.185Z,142.07
2022-11-06T08:53:01.229Z,106.72
2022-11-06T08:55:28.631Z,172.50
2022-11-06T08:57:56.060Z,90.10
2022-11-06T09:00:24.020Z,139.52
2022-11-06T09:02:51.792Z,69.47
2022-11-06T09:05:19.482Z,98.05
2022-11-06T09:07:46.670Z,109.07
2022-11-06T09:10:14.271Z,66.10
2022-11-06T09:12:41.621Z,44.40
2022-11-06T09:15:09.491Z,55.55
2022-11-06T09:17:50.860Z,59.30
2022-11-06T09:20:19.663Z,43.63
2022-11-06T09:22:47.720Z,58.38
2022-11-06T09:25:15.903Z,45.22
2022-11-06T09:27:46.846Z,47.00
2022-11-06T09:30:17.085Z,41.63
2022-11-06T09:32:55.177Z,44.78
2022-11-06T09:35:24.690Z,40.30
2022-11-06T09:37:52.145Z,37.25
2022-11-06T09:40:31.079Z,32.75
2022-11-06T09:43:58.061Z,34.05
2022-11-06T09:46:29.388Z,39.08
2022-11-06T09:49:30.163Z,45.28
2022-11-06T09:52:00.632Z,43.35
2022-11-06T09:54:32.938Z,33.97
2022-11-06T09:57:05.255Z,41.78
2022-11-06T09:59:35.108Z,30.45
2022-11-06T10:02:03.377Z,31.48
2022-11-06T10:05:09.866Z,33.58
2022-11-06T10:07:40.886Z,24.67
2022-11-06T10:10:14.461Z,31.15
2022-11-06T10:13:21.177Z,28.88
2022-11-06T10:16:03.251Z,33.20
2022-11-06T10:18:40.845Z,29.47
2022-11-06T10:21:16.062Z,29.77
2022-11-06T10:24:27.376Z,26.08
2022-11-06T10:26:58.608Z,24.00
2022-11-06T10:29:29.195Z,25.17
2022-11-06T10:32:38.300Z,27.00
2022-11-06T10:35:16.590Z,32.10
2022-11-06T10:37:49.042Z,27.30
2022-11-06T10:40:23.625Z,28.08
2022-11-06T10:43:06.883Z,29.45
2022-11-06T10:45:35.074Z,26.92
2022-11-06T10:48:37.110Z,29.50
2022-11-06T10:51:34.957Z,30.67
2022-11-06T10:57:00.194Z,27.83
2022-11-06T10:59:27.915Z,31.92
2022-11-06T11:01:55.651Z,32.63
2022-11-06T11:04:23.106Z,25.58
2022-11-06T11:06:50.743Z,30.02
2022-11-06T11:09:30.744Z,33.88
2022-11-06T11:11:59.619Z,26.92
2022-11-06T11:14:29.730Z,22.95
2022-11-06T11:17:02.292Z,25.88
2022-11-06T11:19:42.146Z,25.73
2022-11-06T11:22:28.913Z,25.98
2022-11-06T11:25:05.522Z,30.27
2022-11-06T11:27:39.210Z,28.80
2022-11-06T11:30:07.145Z,32.08
2022-11-06T11:32:34.988Z,31.98
2022-11-06T11:35:08.712Z,30.48
2022-11-06T11:37:36.674Z,34.45
2022-11-06T11:40:42.879Z,33.63
2022-11-06T11:43:29.669Z,31.65
2022-11-06T11:46:09.233Z,32.90
2022-11-06T11:48:55.993Z,39.80
2022-11-06T11:51:28.482Z,33.80
2022-11-06T11:54:00.072Z,30.75
2022-11-06T11:56:57.660Z,30.25
2022-11-06T11:59:19.809Z,32.83
2022-11-06T12:01:47.998Z,30.75
2022-11-06T12:04:20.185Z,30.75
2022-11-06T12:06:51.926Z,33.35
2022-11-06T12:09:20.047Z,35.77
2022-11-06T12:11:48.178Z,29.52
2022-11-06T12:14:26.827Z,32.08
2022-11-06T12:17:03.992Z,32.67
2022-11-06T12:19:35.866Z,42.13
2022-11-06T12:22:17.492Z,31.00
2022-11-06T12:24:52.054Z,35.17
2022-11-06T12:27:33.516Z,31.02
2022-11-06T12:30:11.516Z,28.20
2022-11-06T12:32:49.519Z,32.00
2022-11-06T12:35:42.893Z,27.40
2022-11-06T12:38:29.070Z,31.35
2022-11-06T12:41:02.640Z,28.48
2022-11-06T12:43:42.855Z,24.42
2022-11-06T12:46:24.206Z,21.33
2022-11-06T12:49:19.520Z,26.45
2022-11-06T12:52:25.767Z,25.77
2022-11-06T12:55:18.273Z,23.15
2022-11-06T12:57:48.832Z,22.73
2022-11-06T13:00:26.033Z,22.30
2022-11-06T13:03:33.868Z,20.90
2022-11-06T13:06:13.406Z,24.23
2022-11-06T13:08:47.550Z,18.88
2022-11-06T13:11:26.289Z,22.42
2022-11-06T13:14:32.872Z,23.92
2022-11-06T13:17:09.504Z,20.85
2022-11-06T13:20:02.182Z,25.05
2022-11-06T13:22:38.974Z,24.02
2022-11-06T13:25:15.502Z,22.13
2022-11-06T13:27:55.799Z,21.58
2022-11-06T13:30:26.402Z,21.63
2022-11-06T13:33:02.862Z,23.25
2022-11-06T13:35:31.591Z,24.65
2022-11-06T13:37:59.540Z,28.25
2022-11-06T13:40:36.220Z,24.30
2022-11-06T13:43:10.208Z,21.30
2022-11-06T13:46:06.403Z,22.85
2022-11-06T13:49:11.263Z,23.65
2022-11-06T13:52:03.021Z,19.77
2022-11-06T13:55:05.665Z,27.27
2022-11-06T13:57:51.945Z,25.52
2022-11-06T14:00:28.178Z,24.90
2022-11-06T14:03:14.853Z,22.15
2022-11-06T14:06:14.464Z,28.40
2022-11-06T14:08:46.147Z,28.15
2022-11-06T14:11:16.768Z,27.38
2022-11-06T14:14:04.690Z,23.77
2022-11-06T14:16:37.640Z,26.98
2022-11-06T14:19:26.767Z,25.38
2022-11-06T14:21:56.676Z,23.88
2022-11-06T14:24:41.078Z,29.30
2022-11-06T14:27:37.188Z,27.70
2022-11-06T14:30:16.104Z,30.58
2022-11-06T14:32:46.542Z,26.23
2022-11-06T14:35:35.969Z,33.20
2022-11-06T14:38:09.347Z,26.92
2022-11-06T14:40:38.543Z,28.05
2022-11-06T14:43:32.755Z,28.80
2022-11-06T14:46:06.075Z,24.35
2022-11-06T14:48:41.219Z,27.95
2022-11-06T14:51:10.996Z,29.00
2022-11-06T14:53:45.262Z,27.42
2022-11-06T14:56:23.913Z,27.20
2022-11-06T14:58:54.999Z,24.33
2022-11-06T15:01:28.812Z,33.85
2022-11-06T15:03:58.605Z,28.58
2022-11-06T15:06:29.352Z,31.58
2022-11-06T15:09:05.250Z,29.05
2022-11-06T15:11:32.709Z,32.25
2022-11-06T15:14:04.606Z,31.83
2022-11-06T15:16:43.586Z,33.33
2022-11-06T15:19:34.660Z,37.28
2022-11-06T15:22:33.458Z,34.10
2022-11-06T15:25:17.448Z,34.05
2022-11-06T15:27:53.421Z,30.65
2022-11-06T15:30:21.496Z,33.30
2022-11-06T15:32:49.681Z,30.33
2022-11-06T15:35:25.395Z,30.67
2022-11-06T15:37:56.352Z,32.70
2022-11-06T15:40:32.543Z,28.60
2022-11-06T15:43:14.178Z,31.65
2022-11-06T15:45:41.755Z,35.25
2022-11-06T15:48:21.869Z,37.60
2022-11-06T15:50:49.530Z,43.80
2022-11-06T15:53:22.407Z,44.80
2022-11-06T15:56:02.510Z,42.05
2022-11-06T15:58:35.629Z,49.70
2022-11-06T16:01:05.401Z,40.22
2022-11-06T16:03:53.667Z,51.55
2022-11-06T16:06:21.285Z,77.13
2022-11-06T16:08:49.751Z,40.42
2022-11-06T16:11:19.401Z,57.10
2022-11-06T16:13:47.193Z,67.50
2022-11-06T16:16:37.928Z,48.28
2022-11-06T16:19:08.043Z,94.60
2022-11-06T16:21:36.201Z,56.40
2022-11-06T16:24:12.205Z,51.22
2022-11-06T16:26:45.516Z,71.85
2022-11-06T16:29:33.581Z,85.03
2022-11-06T16:32:22.153Z,54.22
2022-11-06T16:34:51.920Z,51.83
2022-11-06T16:37:19.365Z,56.55
2022-11-06T16:39:50.979Z,44.45
2022-11-06T16:42:33.475Z,47.03
2022-11-06T16:45:20.805Z,45.22
2022-11-06T16:48:07.040Z,56.38
2022-11-06T16:50:56.615Z,48.85
2022-11-06T16:53:30.054Z,50.28
2022-11-06T16:56:02.283Z,43.75
2022-11-06T16:58:31.222Z,51.88
2022-11-06T17:01:01.585Z,42.53
2022-11-06T17:03:34.790Z,54.17
2022-11-06T17:06:02.699Z,47.92
2022-11-06T17:08:35.545Z,48.58
2022-11-06T17:11:21.917Z,42.00
2022-11-06T17:13:50.451Z,43.60
2022-11-06T17:16:26.962Z,45.83
2022-11-06T17:18:54.594Z,55.95
2022-11-06T17:21:24.579Z,52.95
2022-11-06T17:23:53.124Z,50.10
2022-11-06T17:26:29.148Z,58.97
2022-11-06T17:28:57.620Z,56.72
2022-11-06T17:31:26.235Z,63.22
2022-11-06T17:33:53.999Z,59.35
2022-11-06T17:36:25.273Z,63.53
2022-11-06T17:38:56.403Z,56.70
2022-11-06T17:41:30.457Z,53.35
2022-11-06T17:44:03.221Z,52.53
2022-11-06T17:49:02.524Z,55.30
2022-11-06T17:51:50.152Z,66.82
2022-11-06T17:54:26.335Z,74.45
2022-11-06T17:56:55.205Z,71.63
2022-11-06T17:59:24.051Z,63.53
2022-11-06T18:01:52.883Z,59.38
2022-11-06T18:04:22.642Z,75.80
2022-11-06T18:06:52.250Z,83.82
2022-11-06T18:09:20.799Z,88.63
2022-11-06T18:11:53.280Z,65.70
2022-11-06T18:14:22.259Z,71.25
2022-11-06T18:16:50.437Z,60.10
2022-11-06T18:19:21.102Z,54.08
2022-11-06T18:21:49.077Z,57.67
2022-11-06T18:24:16.573Z,74.80
2022-11-06T18:26:44.359Z,50.55
2022-11-06T18:29:12.910Z,65.43
2022-11-06T18:31:41.098Z,65.85
2022-11-06T18:34:15.293Z,55.05
2022-11-06T18:36:46.110Z,52.60
2022-11-06T18:39:13.581Z,69.75
2022-11-06T18:41:41.311Z,78.15
2022-11-06T18:44:08.783Z,73.20
2022-11-06T18:46:36.840Z,76.75
2022-11-06T18:49:04.235Z,63.60
2022-11-06T18:51:36.403Z,63.60
2022-11-06T18:54:09.566Z,70.15
2022-11-06T18:56:38.692Z,53.85
2022-11-06T18:59:08.046Z,91.15
2022-11-06T19:01:36.323Z,88.97
2022-11-06T19:04:05.169Z,68.28
2022-11-06T19:06:33.062Z,67.50
2022-11-06T19:09:00.449Z,65.50
2022-11-06T19:11:28.385Z,82.53
2022-11-06T19:13:55.854Z,58.17
2022-11-06T19:16:23.877Z,63.40
2022-11-06T19:21:30.890Z,83.75
2022-11-06T19:24:04.114Z,84.53
2022-11-06T19:26:34.299Z,72.63
2022-11-06T19:29:02.451Z,82.85
2022-11-06T19:31:30.647Z,68.90
2022-11-06T19:33:59.132Z,104.00
2022-11-06T19:36:27.603Z,125.30
2022-11-06T19:38:55.047Z,88.05
2022-11-06T19:41:22.820Z,101.22
2022-11-06T19:43:50.379Z,107.10
2022-11-06T19:46:23.831Z,91.70
2022-11-06T19:48:53.276Z,76.20
2022-11-06T19:51:21.026Z,80.72
2022-11-06T19:53:53.299Z,80.25
2022-11-06T19:56:21.729Z,73.35
2022-11-06T19:58:50.594Z,75.38
2022-11-06T20:01:19.332Z,73.22
2022-11-06T20:03:47.401Z,76.13
2022-11-06T20:06:16.825Z,88.30
2022-11-06T20:08:48.282Z,88.55
2022-11-06T20:11:16.716Z,85.80
2022-11-06T20:13:44.975Z,83.22
2022-11-06T20:16:15.969Z,76.50
2022-11-06T20:18:44.181Z,79.55
2022-11-06T20:21:13.000Z,68.50
2022-11-06T20:23:40.375Z,92.63
2022-11-06T20:26:08.431Z,90.30
2022-11-06T20:28:36.102Z,78.45
2022-11-06T20:31:08.697Z,72.18
2022-11-06T20:33:37.034Z,84.68
2022-11-06T20:36:13.519Z,91.50
2022-11-06T20:38:48.172Z,95.03
2022-11-06T20:41:17.258Z,101.75
2022-11-06T20:43:45.180Z,96.07
2022-11-06T20:46:14.113Z,98.88
2022-11-06T20:48:43.202Z,95.10
2022-11-06T20:51:15.775Z,92.20
2022-11-06T20:53:44.077Z,120.95
2022-11-06T20:56:14.098Z,158.50
2022-11-06T20:58:41.777Z,103.43
2022-11-06T21:01:12.747Z,162.25
2022-11-06T21:03:41.083Z,134.02
2022-11-06T21:06:09.071Z,117.93
2022-11-06T21:08:38.571Z,99.75
2022-11-06T21:11:16.851Z,111.25
2022-11-06T21:13:46.262Z,101.18
2022-11-06T21:16:19.699Z,86.13
2022-11-06T21:21:18.440Z,88.55
2022-11-06T21:23:46.922Z,101.38
2022-11-06T21:26:23.724Z,109.97
2022-11-06T21:28:51.501Z,110.22
2022-11-06T21:31:21.569Z,111.68
2022-11-06T21:33:50.685Z,107.95
2022-11-06T21:36:26.716Z,117.18
2022-11-06T21:38:55.419Z,104.03
2022-11-06T21:41:25.152Z,101.28
2022-11-06T21:43:52.879Z,94.18
2022-11-06T21:46:22.172Z,92.68
2022-11-06T21:48:50.575Z,96.15
2022-11-06T21:51:24.511Z,88.20
2022-11-06T21:54:10.499Z,91.53
2022-11-06T21:56:39.773Z,100.30
2022-11-06T21:59:10.794Z,89.28
2022-11-06T22:01:40.386Z,104.00
2022-11-06T22:04:08.465Z,92.60
2022-11-06T22:06:36.244Z,95.63
2022-11-06T22:09:04.103Z,101.30
2022-11-06T22:11:37.283Z,100.78
2022-11-06T22:14:14.472Z,92.97
2022-11-06T22:16:44.182Z,89.75
2022-11-06T22:19:12.067Z,84.78
2022-11-06T22:21:40.385Z,79.35
2022-11-06T22:24:08.738Z,70.57
2022-11-06T22:26:36.641Z,73.03
2022-11-06T22:29:09.915Z,101.90
2022-11-06T22:31:37.842Z,85.85
2022-11-06T22:34:05.563Z,126.60
2022-11-06T22:36:33.488Z,108.40
2022-11-06T22:39:05.101Z,99.82
2022-11-06T22:41:32.898Z,97.67
2022-11-06T22:44:00.633Z,96.20
2022-11-06T22:46:29.174Z,100.78
2022-11-06T22:48:57.349Z,110.82
2022-11-06T22:51:27.716Z,129.77
2022-11-06T22:53:55.560Z,157.65
2022-11-06T22:56:24.579Z,88.10
2022-11-06T22:58:57.364Z,77.25
2022-11-06T23:01:26.602Z,83.70
2022-11-06T23:03:57.991Z,93.35
2022-11-06T23:06:26.289Z,87.78
2022-11-06T23:08:54.053Z,86.70
2022-11-06T23:11:25.491Z,112.53
2022-11-06T23:13:53.317Z,93.00
2022-11-06T23:16:43.447Z,95.50
2022-11-06T23:19:13.385Z,112.22
2022-11-06T23:21:41.697Z,102.68
2022-11-06T23:24:10.290Z,112.53
2022-11-06T23:26:37.822Z,155.60
2022-11-06T23:29:06.266Z,111.03
2022-11-06T23:31:33.654Z,120.35
2022-11-06T23:34:01.425Z,101.93
2022-11-06T23:36:28.753Z,98.18
2022-11-06T23:38:56.885Z,97.20
2022-11-06T23:41:43.076Z,104.30
2022-11-06T23:44:31.596Z,115.95
2022-11-06T23:47:00.009Z,88.72
2022-11-06T23:49:28.897Z,100.13
2022-11-06T23:51:56.441Z,95.10
2022-11-06T23:54:25.449Z,102.10
2022-11-06T23:56:52.856Z,95.55
2022-11-06T23:59:20.565Z,92.65
